createdAt,value
2018-06-08T00:00:49.432Z,17.07
2018-06-08T00:02:18.128Z,17.06
2018-06-08T00:03:44.359Z,17.06
2018-06-08T00:05:12.967Z,17.04
2018-06-08T00:06:40.466Z,17.02
2018-06-08T00:08:06.969Z,17.01
2018-06-08T00:09:34.291Z,16.99
2018-06-08T00:11:01.973Z,16.98
2018-06-08T00:12:29.516Z,16.96
2018-06-08T00:13:56.689Z,16.93
2018-06-08T00:15:24.249Z,16.92
2018-06-08T00:16:52.953Z,16.89
2018-06-08T00:18:20.367Z,16.87
2018-06-08T00:19:46.699Z,16.85
2018-06-08T00:21:14.420Z,16.83
2018-06-08T00:22:41.799Z,16.80
2018-06-08T00:24:09.342Z,16.77
2018-06-08T00:25:36.958Z,16.75
2018-06-08T00:27:05.475Z,16.74
2018-06-08T00:28:32.974Z,16.71
2018-06-08T00:29:59.244Z,16.70
2018-06-08T00:31:26.567Z,16.67
2018-06-08T00:32:54.072Z,16.66
2018-06-08T00:34:21.542Z,16.65
2018-06-08T00:35:49.181Z,16.63
2018-06-08T00:37:17.780Z,16.61
2018-06-08T00:38:44.312Z,16.59
2018-06-08T00:40:11.736Z,16.58
2018-06-08T00:41:40.307Z,16.56
2018-06-08T00:43:06.858Z,16.55
2018-06-08T00:44:35.159Z,16.54
2018-06-08T00:46:02.673Z,16.52
2018-06-08T00:47:29.081Z,16.50
2018-06-08T00:48:56.584Z,16.47
2018-06-08T00:50:23.927Z,16.46
2018-06-08T00:51:51.365Z,16.45
2018-06-08T00:53:19.072Z,16.45
2018-06-08T00:54:46.491Z,16.43
2018-06-08T00:56:13.989Z,16.42
2018-06-08T00:57:41.440Z,16.42
2018-06-08T00:59:08.998Z,16.42
2018-06-08T01:00:36.345Z,16.42
2018-06-08T01:02:03.731Z,16.41
2018-06-08T01:03:32.027Z,16.41
2018-06-08T01:04:59.580Z,16.39
2018-06-08T01:06:25.937Z,16.38
2018-06-08T01:07:53.364Z,16.37
2018-06-08T01:09:22.006Z,16.36
2018-06-08T01:10:49.532Z,16.35
2018-06-08T01:12:15.902Z,16.35
2018-06-08T01:13:43.475Z,16.34
2018-06-08T01:15:10.811Z,16.33
2018-06-08T01:16:39.539Z,16.32
2018-06-08T01:18:06.962Z,16.30
2018-06-08T01:19:34.548Z,16.29
2018-06-08T01:21:01.935Z,16.28
2018-06-08T01:22:28.292Z,16.28
2018-06-08T01:23:55.768Z,16.26
2018-06-08T01:25:23.419Z,16.23
2018-06-08T01:26:50.792Z,16.22
2018-06-08T01:28:18.440Z,16.21
2018-06-08T01:29:46.939Z,16.19
2018-06-08T01:31:13.207Z,16.18
2018-06-08T01:32:40.701Z,16.17
2018-06-08T01:34:08.140Z,16.17
2018-06-08T01:35:35.564Z,16.19
2018-06-08T01:37:03.911Z,16.20
2018-06-08T01:38:30.079Z,16.20
2018-06-08T01:39:57.555Z,16.21
2018-06-08T01:41:25.907Z,16.23
2018-06-08T01:42:52.195Z,16.26
2018-06-08T01:44:22.434Z,16.29
2018-06-08T01:45:47.169Z,16.31
2018-06-08T01:47:15.730Z,16.32
2018-06-08T01:48:43.025Z,16.32
2018-06-08T01:50:09.377Z,16.30
2018-06-08T01:51:36.844Z,16.29
2018-06-08T01:53:05.193Z,16.28
2018-06-08T01:54:32.801Z,16.28
2018-06-08T01:55:59.078Z,16.28
2018-06-08T01:57:26.592Z,16.28
2018-06-08T01:58:53.925Z,16.28
2018-06-08T02:00:22.584Z,16.27
2018-06-08T02:01:48.931Z,16.25
2018-06-08T02:03:16.608Z,16.26
2018-06-08T02:04:45.075Z,16.26
2018-06-08T02:06:11.487Z,16.27
2018-06-08T02:07:38.890Z,16.27
2018-06-08T02:09:06.003Z,16.27
2018-06-08T02:10:34.462Z,16.28
2018-06-08T02:12:00.922Z,16.28
2018-06-08T02:13:29.284Z,16.30
2018-06-08T02:14:55.902Z,16.33
2018-06-08T02:16:24.389Z,16.35
2018-06-08T02:17:50.757Z,16.36
2018-06-08T02:19:18.336Z,16.36
2018-06-08T02:20:45.757Z,16.33
2018-06-08T02:22:13.110Z,16.30
2018-06-08T02:23:41.648Z,16.28
2018-06-08T02:25:09.108Z,16.26
2018-06-08T02:26:36.535Z,16.26
2018-06-08T02:28:02.811Z,16.25
2018-06-08T02:29:31.364Z,16.23
2018-06-08T02:30:57.779Z,16.19
2018-06-08T02:32:25.126Z,16.15
2018-06-08T02:33:52.626Z,16.13
2018-06-08T02:35:20.291Z,16.11
2018-06-08T02:36:47.671Z,16.10
2018-06-08T02:38:15.274Z,16.09
2018-06-08T02:39:42.752Z,16.09
2018-06-08T02:41:10.267Z,16.09
2018-06-08T02:42:38.846Z,16.08
2018-06-08T02:44:05.232Z,16.06
2018-06-08T02:45:32.683Z,16.04
2018-06-08T02:47:00.040Z,16.02
2018-06-08T02:48:33.496Z,16.01
2018-06-08T02:49:55.831Z,16.00
2018-06-08T02:51:23.323Z,15.99
2018-06-08T02:52:49.684Z,15.98
2018-06-08T02:54:17.298Z,15.97
2018-06-08T02:55:44.817Z,15.96
2018-06-08T02:57:12.307Z,15.94
2018-06-08T02:58:39.804Z,15.91
2018-06-08T03:00:08.269Z,15.88
2018-06-08T03:01:34.658Z,15.85
2018-06-08T03:03:02.013Z,15.82
2018-06-08T03:04:29.487Z,15.79
2018-06-08T03:05:58.182Z,15.79
2018-06-08T03:07:24.583Z,15.78
2018-06-08T03:08:52.199Z,15.78
2018-06-08T03:10:20.668Z,15.78
2018-06-08T03:11:48.091Z,15.80
2018-06-08T03:13:14.518Z,15.81
2018-06-08T03:14:41.895Z,15.81
2018-06-08T03:16:10.455Z,15.80
2018-06-08T03:17:37.781Z,15.80
2018-06-08T03:19:05.099Z,15.81
2018-06-08T03:20:32.619Z,15.82
2018-06-08T03:21:59.060Z,15.83
2018-06-08T03:23:26.456Z,15.84
2018-06-08T03:24:54.031Z,15.86
2018-06-08T03:26:22.686Z,15.87
2018-06-08T03:27:49.177Z,15.87
2018-06-08T03:29:16.593Z,15.87
2018-06-08T03:30:45.076Z,15.87
2018-06-08T03:32:11.555Z,15.87
2018-06-08T03:33:39.030Z,15.88
2018-06-08T03:35:07.582Z,15.89
2018-06-08T03:36:35.063Z,15.91
2018-06-08T03:38:01.579Z,15.93
2018-06-08T03:39:28.972Z,15.94
2018-06-08T03:40:56.524Z,15.96
2018-06-08T03:42:25.148Z,15.98
2018-06-08T03:43:52.541Z,15.99
2018-06-08T03:45:20.098Z,16.00
2018-06-08T03:46:47.630Z,16.02
2018-06-08T03:48:14.082Z,16.04
2018-06-08T03:49:41.637Z,16.08
2018-06-08T03:51:10.026Z,16.22
2018-06-08T03:52:37.553Z,16.43
2018-06-08T03:54:05.109Z,16.70
2018-06-08T03:55:32.527Z,16.97
2018-06-08T03:56:59.017Z,17.19
2018-06-08T03:58:27.717Z,17.36
2018-06-08T03:59:55.330Z,17.47
2018-06-08T04:01:21.854Z,17.51
2018-06-08T04:02:49.502Z,17.47
2018-06-08T04:04:17.024Z,17.42
2018-06-08T04:05:44.677Z,17.36
2018-06-08T04:07:12.204Z,17.31
2018-06-08T04:08:39.730Z,17.27
2018-06-08T04:10:07.410Z,17.22
2018-06-08T04:11:35.920Z,17.19
2018-06-08T04:13:03.282Z,17.15
2018-06-08T04:14:29.894Z,17.12
2018-06-08T04:15:58.371Z,17.10
2018-06-08T04:17:24.724Z,17.08
2018-06-08T04:18:53.312Z,17.06
2018-06-08T04:20:20.905Z,17.05
2018-06-08T04:21:48.308Z,17.04
2018-06-08T04:23:14.692Z,17.04
2018-06-08T04:24:42.029Z,17.03
2018-06-08T04:26:09.669Z,17.03
2018-06-08T04:27:36.889Z,17.03
2018-06-08T04:29:05.470Z,17.05
2018-06-08T04:30:32.974Z,17.06
2018-06-08T04:31:59.471Z,17.07
2018-06-08T04:33:28.027Z,17.08
2018-06-08T04:34:54.568Z,17.10
2018-06-08T04:36:22.900Z,17.11
2018-06-08T04:37:49.396Z,17.14
2018-06-08T04:39:16.915Z,17.18
2018-06-08T04:40:44.605Z,17.21
2018-06-08T04:42:11.956Z,17.24
2018-06-08T04:43:39.693Z,17.27
2018-06-08T04:45:08.303Z,17.31
2018-06-08T04:46:34.578Z,17.36
2018-06-08T04:48:02.050Z,17.40
2018-06-08T04:49:29.532Z,17.45
2018-06-08T04:50:56.949Z,17.51
2018-06-08T04:52:24.432Z,17.56
2018-06-08T04:53:53.079Z,17.62
2018-06-08T04:55:20.685Z,17.69
2018-06-08T04:56:47.224Z,17.77
2018-06-08T04:58:14.765Z,17.84
2018-06-08T04:59:42.474Z,17.93
2018-06-08T05:01:09.835Z,18.00
2018-06-08T05:02:37.258Z,18.08
2018-06-08T05:04:04.605Z,18.16
2018-06-08T05:05:32.227Z,18.24
2018-06-08T05:06:59.844Z,18.32
2018-06-08T05:08:27.380Z,18.39
2018-06-08T05:09:55.921Z,18.45
2018-06-08T05:11:23.495Z,18.52
2018-06-08T05:12:49.976Z,18.59
2018-06-08T05:14:17.522Z,18.69
2018-06-08T05:15:46.246Z,18.79
2018-06-08T05:17:13.855Z,18.88
2018-06-08T05:18:40.467Z,18.94
2018-06-08T05:20:08.997Z,18.98
2018-06-08T05:21:36.670Z,19.03
2018-06-08T05:23:04.141Z,19.08
2018-06-08T05:24:31.526Z,19.12
2018-06-08T05:25:57.929Z,19.10
2018-06-08T05:27:25.259Z,19.11
2018-06-08T05:28:53.830Z,19.15
2018-06-08T05:30:21.392Z,19.17
2018-06-08T05:31:47.970Z,19.21
2018-06-08T05:33:16.623Z,19.28
2018-06-08T05:34:43.211Z,19.38
2018-06-08T05:36:10.979Z,19.52
2018-06-08T05:37:39.605Z,19.75
2018-06-08T05:39:06.205Z,20.05
2018-06-08T05:40:33.770Z,20.35
2018-06-08T05:42:02.376Z,20.62
2018-06-08T05:43:28.878Z,20.87
2018-06-08T05:44:56.402Z,21.11
2018-06-08T05:46:25.079Z,21.32
2018-06-08T05:47:51.762Z,21.50
2018-06-08T05:49:20.227Z,21.65
2018-06-08T05:50:47.641Z,21.78
2018-06-08T05:52:14.214Z,21.86
2018-06-08T05:53:41.761Z,21.89
2018-06-08T05:55:09.347Z,21.81
2018-06-08T05:56:36.845Z,21.84
2018-06-08T05:58:04.372Z,21.85
2018-06-08T05:59:32.066Z,21.84
2018-06-08T06:01:00.768Z,21.79
2018-06-08T06:02:27.266Z,21.72
2018-06-08T06:03:54.755Z,21.70
2018-06-08T06:05:22.314Z,21.70
2018-06-08T06:06:53.086Z,21.72
2018-06-08T06:08:17.775Z,21.75
2018-06-08T06:09:45.372Z,21.79
2018-06-08T06:11:12.931Z,21.80
2018-06-08T06:12:41.692Z,21.84
2018-06-08T06:14:08.254Z,21.85
2018-06-08T06:15:35.811Z,21.87
2018-06-08T06:17:03.324Z,21.91
2018-06-08T06:18:30.931Z,21.91
2018-06-08T06:19:58.476Z,21.94
2018-06-08T06:21:26.139Z,21.97
2018-06-08T06:22:53.563Z,22.06
2018-06-08T06:24:21.269Z,22.12
2018-06-08T06:25:50.162Z,22.21
2018-06-08T06:27:16.783Z,22.33
2018-06-08T06:28:44.396Z,22.48
2018-06-08T06:30:12.043Z,22.64
2018-06-08T06:31:39.631Z,22.82
2018-06-08T06:33:07.511Z,22.98
2018-06-08T06:34:35.191Z,23.14
2018-06-08T06:36:03.917Z,23.36
2018-06-08T06:37:30.319Z,23.63
2018-06-08T06:38:58.200Z,23.96
2018-06-08T06:40:25.980Z,24.31
2018-06-08T06:41:53.680Z,24.66
2018-06-08T06:43:21.530Z,24.98
2018-06-08T06:44:50.226Z,25.43
2018-06-08T06:46:16.853Z,25.93
2018-06-08T06:47:44.620Z,26.45
2018-06-08T06:49:12.383Z,26.82
2018-06-08T06:50:39.987Z,26.91
2018-06-08T06:52:07.699Z,26.72
2018-06-08T06:53:36.431Z,26.34
2018-06-08T06:55:03.144Z,25.99
2018-06-08T06:56:30.631Z,25.67
2018-06-08T06:57:59.415Z,25.56
2018-06-08T06:59:26.191Z,25.51
2018-06-08T07:00:53.635Z,25.44
2018-06-08T07:02:22.351Z,25.27
2018-06-08T07:03:48.787Z,25.17
2018-06-08T07:05:16.448Z,25.10
2018-06-08T07:06:45.139Z,25.06
2018-06-08T07:08:11.699Z,25.01
2018-06-08T07:09:39.412Z,24.97
2018-06-08T07:11:06.846Z,25.02
2018-06-08T07:12:35.431Z,25.11
2018-06-08T07:14:01.821Z,25.17
2018-06-08T07:15:29.547Z,25.42
2018-06-08T07:16:58.131Z,25.66
2018-06-08T07:18:24.843Z,25.85
2018-06-08T07:19:52.540Z,26.01
2018-06-08T07:21:20.201Z,26.09
2018-06-08T07:22:47.731Z,26.18
2018-06-08T07:24:15.302Z,26.29
2018-06-08T07:25:44.080Z,26.33
2018-06-08T07:27:10.587Z,26.23
2018-06-08T07:28:38.335Z,26.11
2018-06-08T07:30:06.052Z,26.05
2018-06-08T07:31:33.700Z,25.96
2018-06-08T07:33:01.216Z,25.87
2018-06-08T07:34:28.616Z,25.75
2018-06-08T07:35:56.269Z,25.53
2018-06-08T07:37:25.057Z,25.45
2018-06-08T07:38:51.418Z,25.41
2018-06-08T07:40:19.110Z,25.37
2018-06-08T07:41:47.659Z,25.33
2018-06-08T07:43:15.254Z,25.31
2018-06-08T07:44:42.860Z,25.29
2018-06-08T07:46:09.526Z,25.25
2018-06-08T07:47:38.247Z,25.21
2018-06-08T07:49:04.676Z,25.19
2018-06-08T07:50:32.467Z,25.19
2018-06-08T07:52:00.945Z,25.19
2018-06-08T07:53:27.597Z,25.14
2018-06-08T07:54:56.214Z,25.14
2018-06-08T07:56:22.926Z,25.15
2018-06-08T07:57:50.655Z,25.19
2018-06-08T07:59:18.295Z,25.24
2018-06-08T08:00:45.895Z,25.29
2018-06-08T08:02:13.598Z,25.30
2018-06-08T08:03:41.234Z,25.33
2018-06-08T08:05:09.719Z,25.35
2018-06-08T08:06:36.426Z,25.41
2018-06-08T08:08:05.175Z,25.47
2018-06-08T08:09:32.687Z,25.51
2018-06-08T08:11:00.336Z,25.55
2018-06-08T08:12:26.924Z,25.56
2018-06-08T08:13:55.648Z,25.61
2018-06-08T08:15:23.131Z,25.68
2018-06-08T08:16:49.690Z,25.76
2018-06-08T08:18:17.254Z,25.81
2018-06-08T08:19:45.843Z,25.85
2018-06-08T08:21:12.524Z,25.90
2018-06-08T08:22:41.200Z,25.93
2018-06-08T08:24:07.681Z,25.94
2018-06-08T08:25:35.443Z,25.92
2018-06-08T08:27:04.102Z,25.92
2018-06-08T08:28:30.634Z,25.92
2018-06-08T08:29:58.133Z,25.94
2018-06-08T08:31:25.765Z,25.99
2018-06-08T08:32:53.568Z,26.06
2018-06-08T08:34:22.277Z,26.12
2018-06-08T08:35:48.853Z,26.17
2018-06-08T08:37:16.496Z,26.24
2018-06-08T08:38:44.269Z,26.31
2018-06-08T08:40:11.922Z,26.35
2018-06-08T08:41:39.582Z,26.42
2018-06-08T08:43:07.146Z,26.43
2018-06-08T08:44:34.938Z,26.46
2018-06-08T08:46:02.546Z,26.48
2018-06-08T08:47:30.080Z,26.50
2018-06-08T08:48:58.465Z,26.53
2018-06-08T08:50:25.097Z,26.62
2018-06-08T08:51:52.794Z,26.68
2018-06-08T08:53:20.527Z,26.68
2018-06-08T08:54:47.987Z,26.70
2018-06-08T08:56:15.663Z,26.73
2018-06-08T08:57:44.221Z,26.75
2018-06-08T08:59:10.939Z,26.77
2018-06-08T09:00:39.460Z,26.82
2018-06-08T09:02:07.159Z,26.86
2018-06-08T09:03:33.741Z,26.92
2018-06-08T09:05:01.403Z,26.96
2018-06-08T09:06:29.083Z,27.04
2018-06-08T09:07:56.682Z,27.12
2018-06-08T09:09:25.341Z,27.18
2018-06-08T09:10:52.962Z,27.21
2018-06-08T09:12:19.613Z,27.25
2018-06-08T09:13:47.183Z,27.27
2018-06-08T09:15:14.625Z,27.34
2018-06-08T09:16:43.315Z,27.37
2018-06-08T09:18:10.688Z,27.36
2018-06-08T09:19:37.259Z,27.36
2018-06-08T09:21:05.930Z,27.37
2018-06-08T09:22:33.609Z,27.34
2018-06-08T09:24:00.017Z,27.38
2018-06-08T09:25:27.730Z,27.46
2018-06-08T09:26:56.268Z,27.51
2018-06-08T09:28:22.906Z,27.57
2018-06-08T09:29:50.641Z,27.64
2018-06-08T09:31:18.346Z,27.65
2018-06-08T09:32:46.173Z,27.70
2018-06-08T09:34:13.686Z,27.73
2018-06-08T09:35:41.345Z,27.77
2018-06-08T09:37:09.803Z,27.79
2018-06-08T09:38:36.539Z,27.81
2018-06-08T09:40:04.212Z,27.83
2018-06-08T09:41:31.802Z,27.83
2018-06-08T09:42:59.543Z,27.83
2018-06-08T09:44:27.244Z,27.83
2018-06-08T09:45:54.951Z,27.89
2018-06-08T09:47:22.496Z,27.96
2018-06-08T09:48:50.972Z,28.02
2018-06-08T09:50:17.317Z,28.07
2018-06-08T09:51:44.987Z,28.04
2018-06-08T09:53:12.684Z,27.99
2018-06-08T09:54:40.244Z,27.98
2018-06-08T09:56:07.765Z,28.00
2018-06-08T09:57:35.213Z,28.00
2018-06-08T09:59:02.949Z,27.95
2018-06-08T10:00:30.510Z,27.91
2018-06-08T10:01:58.108Z,27.90
2018-06-08T10:03:25.463Z,27.94
2018-06-08T10:04:52.943Z,27.95
2018-06-08T10:06:20.702Z,27.97
2018-06-08T10:07:48.385Z,27.99
2018-06-08T10:09:12.047Z,27.96
2018-06-08T10:10:44.649Z,27.98
2018-06-08T10:12:10.990Z,28.04
2018-06-08T10:13:38.368Z,28.11
2018-06-08T10:15:06.865Z,28.10
2018-06-08T10:16:29.689Z,28.10
2018-06-08T10:18:00.852Z,28.10
2018-06-08T10:19:28.457Z,28.10
2018-06-08T10:20:56.056Z,28.09
2018-06-08T10:22:23.563Z,28.07
2018-06-08T10:23:51.032Z,28.05
2018-06-08T10:25:18.541Z,28.11
2018-06-08T10:26:46.083Z,28.18
2018-06-08T10:28:13.592Z,28.27
2018-06-08T10:29:41.195Z,28.29
2018-06-08T10:31:08.870Z,28.29
2018-06-08T10:32:36.507Z,28.36
2018-06-08T10:34:05.203Z,28.44
2018-06-08T10:35:32.789Z,28.50
2018-06-08T10:36:59.497Z,28.54
2018-06-08T10:38:28.169Z,28.62
2018-06-08T10:39:54.820Z,28.64
2018-06-08T10:41:22.678Z,28.66
2018-06-08T10:42:50.157Z,28.61
2018-06-08T10:44:18.660Z,28.55
2018-06-08T10:45:45.534Z,28.59
2018-06-08T10:47:09.081Z,28.64
2018-06-08T10:48:41.890Z,28.69
2018-06-08T10:50:08.268Z,28.76
2018-06-08T10:51:36.044Z,28.94
2018-06-08T10:53:04.689Z,29.12
2018-06-08T10:54:31.423Z,29.14
2018-06-08T10:55:59.178Z,29.31
2018-06-08T10:57:26.522Z,29.49
2018-06-08T10:58:54.099Z,29.60
2018-06-08T11:00:21.389Z,29.66
2018-06-08T11:01:48.909Z,29.69
2018-06-08T11:03:16.236Z,29.81
2018-06-08T11:04:43.989Z,29.92
2018-06-08T11:06:11.568Z,29.94
2018-06-08T11:07:39.243Z,30.05
2018-06-08T11:09:06.671Z,30.18
2018-06-08T11:10:35.247Z,30.33
2018-06-08T11:12:02.795Z,30.42
2018-06-08T11:13:29.825Z,30.51
2018-06-08T11:14:57.649Z,30.47
2018-06-08T11:16:28.764Z,30.58
2018-06-08T11:17:53.967Z,30.73
2018-06-08T11:19:20.442Z,30.94
2018-06-08T11:20:49.074Z,30.91
2018-06-08T11:22:16.646Z,31.04
2018-06-08T11:23:42.969Z,31.27
2018-06-08T11:25:10.640Z,31.37
2018-06-08T11:26:37.815Z,31.35
2018-06-08T11:28:05.230Z,31.45
2018-06-08T11:29:32.802Z,31.46
2018-06-08T11:31:01.483Z,31.43
2018-06-08T11:32:27.920Z,31.47
2018-06-08T11:33:55.723Z,31.37
2018-06-08T11:35:23.178Z,31.34
2018-06-08T11:36:50.780Z,31.44
2018-06-08T11:38:18.541Z,31.63
2018-06-08T11:39:46.186Z,31.81
2018-06-08T11:41:13.630Z,31.73
2018-06-08T11:42:41.343Z,31.82
2018-06-08T11:44:08.909Z,31.80
2018-06-08T11:45:37.690Z,31.86
2018-06-08T11:47:04.417Z,31.87
2018-06-08T11:48:32.082Z,31.63
2018-06-08T11:50:00.884Z,31.44
2018-06-08T11:51:27.690Z,31.43
2018-06-08T11:52:55.466Z,31.49
2018-06-08T11:54:23.235Z,31.66
2018-06-08T11:55:51.005Z,31.65
2018-06-08T11:57:18.801Z,31.59
2018-06-08T11:58:47.595Z,31.66
2018-06-08T12:00:14.279Z,31.69
2018-06-08T12:01:41.919Z,31.51
2018-06-08T12:03:09.635Z,31.34
2018-06-08T12:04:37.362Z,31.08
2018-06-08T12:06:05.077Z,30.85
2018-06-08T12:07:33.840Z,30.75
2018-06-08T12:09:00.257Z,30.87
2018-06-08T12:10:28.030Z,31.00
2018-06-08T12:11:55.795Z,31.11
2018-06-08T12:13:23.543Z,31.23
2018-06-08T12:14:52.157Z,31.10
2018-06-08T12:16:18.964Z,30.94
2018-06-08T12:17:46.614Z,30.90
2018-06-08T12:19:15.313Z,31.08
2018-06-08T12:20:41.753Z,31.25
2018-06-08T12:22:09.213Z,31.42
2018-06-08T12:23:37.981Z,31.60
2018-06-08T12:25:05.680Z,31.76
2018-06-08T12:26:32.280Z,31.75
2018-06-08T12:27:59.853Z,31.62
2018-06-08T12:29:27.645Z,31.48
2018-06-08T12:30:55.390Z,31.42
2018-06-08T12:32:23.164Z,31.48
2018-06-08T12:33:50.897Z,31.31
2018-06-08T12:35:18.628Z,31.34
2018-06-08T12:36:46.431Z,31.33
2018-06-08T12:38:15.174Z,31.23
2018-06-08T12:39:42.886Z,31.16
2018-06-08T12:41:09.563Z,31.25
2018-06-08T12:42:38.296Z,31.30
2018-06-08T12:44:05.889Z,31.25
2018-06-08T12:45:32.574Z,31.10
2018-06-08T12:47:00.998Z,30.99
2018-06-08T12:48:27.697Z,30.90
2018-06-08T12:49:55.425Z,30.80
2018-06-08T12:51:23.216Z,30.72
2018-06-08T12:52:50.835Z,30.70
2018-06-08T12:54:19.605Z,30.78
2018-06-08T12:55:46.290Z,30.85
2018-06-08T12:57:15.068Z,30.79
2018-06-08T12:58:42.760Z,30.68
2018-06-08T13:00:09.359Z,30.47
2018-06-08T13:01:37.012Z,30.31
2018-06-08T13:03:04.730Z,30.29
2018-06-08T13:04:32.243Z,30.34
2018-06-08T13:05:59.773Z,30.35
2018-06-08T13:07:28.477Z,30.33
2018-06-08T13:08:55.261Z,30.28
2018-06-08T13:10:23.891Z,30.27
2018-06-08T13:11:50.623Z,30.20
2018-06-08T13:13:18.384Z,30.19
2018-06-08T13:14:46.181Z,30.20
2018-06-08T13:16:13.848Z,30.29
2018-06-08T13:17:41.501Z,30.30
2018-06-08T13:19:09.122Z,30.24
2018-06-08T13:20:36.735Z,30.16
2018-06-08T13:22:04.456Z,30.15
2018-06-08T13:23:32.082Z,30.16
2018-06-08T13:25:00.899Z,30.13
2018-06-08T13:26:27.499Z,30.15
2018-06-08T13:27:55.268Z,30.12
2018-06-08T13:29:22.952Z,30.15
2018-06-08T13:30:50.754Z,30.09
2018-06-08T13:32:19.487Z,30.04
2018-06-08T13:33:47.143Z,29.95
2018-06-08T13:35:13.865Z,29.94
2018-06-08T13:36:41.317Z,29.82
2018-06-08T13:38:09.149Z,29.81
2018-06-08T13:39:37.792Z,29.80
2018-06-08T13:41:04.320Z,29.80
2018-06-08T13:42:31.830Z,29.69
2018-06-08T13:43:59.528Z,29.58
2018-06-08T13:45:27.241Z,29.56
2018-06-08T13:46:54.994Z,29.56
2018-06-08T13:48:23.573Z,29.54
2018-06-08T13:49:50.309Z,29.55
2018-06-08T13:51:19.062Z,29.51
2018-06-08T13:52:45.713Z,29.48
2018-06-08T13:54:14.479Z,29.52
2018-06-08T13:55:41.250Z,29.55
2018-06-08T13:57:09.991Z,29.54
2018-06-08T13:58:37.549Z,29.54
2018-06-08T14:00:04.188Z,29.54
2018-06-08T14:01:31.801Z,29.54
2018-06-08T14:02:59.563Z,29.47
2018-06-08T14:04:27.517Z,29.37
2018-06-08T14:05:54.010Z,29.31
2018-06-08T14:07:21.823Z,29.32
2018-06-08T14:08:49.471Z,29.32
2018-06-08T14:10:18.219Z,29.34
2018-06-08T14:11:45.857Z,29.36
2018-06-08T14:13:12.535Z,29.38
2018-06-08T14:14:41.241Z,29.41
2018-06-08T14:16:07.801Z,29.35
2018-06-08T14:17:35.547Z,29.32
2018-06-08T14:19:03.213Z,29.30
2018-06-08T14:20:30.808Z,29.28
2018-06-08T14:21:58.547Z,29.28
2018-06-08T14:23:25.816Z,29.28
2018-06-08T14:24:54.536Z,29.25
2018-06-08T14:26:21.224Z,29.21
2018-06-08T14:27:48.968Z,29.20
2018-06-08T14:29:17.569Z,29.20
2018-06-08T14:30:44.324Z,29.20
2018-06-08T14:32:12.842Z,29.20
2018-06-08T14:33:39.570Z,29.20
2018-06-08T14:35:06.849Z,29.16
2018-06-08T14:36:34.404Z,29.16
2018-06-08T14:38:02.995Z,29.18
2018-06-08T14:39:29.661Z,29.19
2018-06-08T14:40:58.415Z,29.17
2018-06-08T14:42:25.175Z,29.11
2018-06-08T14:43:52.829Z,29.08
2018-06-08T14:45:19.995Z,29.03
2018-06-08T14:46:48.777Z,28.99
2018-06-08T14:48:16.532Z,28.98
2018-06-08T14:49:42.636Z,28.96
2018-06-08T14:51:10.179Z,28.97
2018-06-08T14:52:37.396Z,28.98
2018-06-08T14:54:05.078Z,28.99
2018-06-08T14:55:32.844Z,29.01
2018-06-08T14:57:00.265Z,29.04
2018-06-08T14:58:28.106Z,29.05
2018-06-08T14:59:56.838Z,29.03
2018-06-08T15:01:23.340Z,28.99
2018-06-08T15:02:52.101Z,28.97
2018-06-08T15:04:18.720Z,28.95
2018-06-08T15:05:46.911Z,28.95
2018-06-08T15:07:14.524Z,28.93
2018-06-08T15:08:41.034Z,28.92
2018-06-08T15:10:08.541Z,28.89
2018-06-08T15:11:37.281Z,28.90
2018-06-08T15:13:03.529Z,28.90
2018-06-08T15:14:32.183Z,28.92
2018-06-08T15:15:58.705Z,28.89
2018-06-08T15:17:27.318Z,28.86
2018-06-08T15:18:55.081Z,28.85
2018-06-08T15:20:21.813Z,28.82
2018-06-08T15:21:49.555Z,28.81
2018-06-08T15:23:18.207Z,28.79
2018-06-08T15:24:45.880Z,28.77
2018-06-08T15:26:12.574Z,28.77
2018-06-08T15:27:41.294Z,28.78
2018-06-08T15:29:07.978Z,28.77
2018-06-08T15:30:36.739Z,28.76
2018-06-08T15:32:04.124Z,28.76
2018-06-08T15:33:30.789Z,28.75
2018-06-08T15:34:58.182Z,28.74
2018-06-08T15:36:26.792Z,28.75
2018-06-08T15:37:54.388Z,28.75
2018-06-08T15:39:20.988Z,28.74
2018-06-08T15:40:49.638Z,28.74
2018-06-08T15:42:16.341Z,28.71
2018-06-08T15:43:44.199Z,28.70
2018-06-08T15:45:11.805Z,28.68
2018-06-08T15:46:40.416Z,28.67
2018-06-08T15:48:07.080Z,28.66
2018-06-08T15:49:34.807Z,28.64
2018-06-08T15:51:02.527Z,28.63
2018-06-08T15:52:30.090Z,28.61
2018-06-08T15:53:57.749Z,28.59
2018-06-08T15:55:25.396Z,28.61
2018-06-08T15:56:53.169Z,28.61
2018-06-08T15:58:20.938Z,28.59
2018-06-08T15:59:48.562Z,28.58
2018-06-08T16:01:17.364Z,28.55
2018-06-08T16:02:43.997Z,28.54
2018-06-08T16:04:11.667Z,28.52
2018-06-08T16:05:40.273Z,28.50
2018-06-08T16:07:07.981Z,28.47
2018-06-08T16:10:02.189Z,28.43
2018-06-08T16:11:31.089Z,28.41
2018-06-08T16:12:58.664Z,28.39
2018-06-08T16:14:25.475Z,28.39
2018-06-08T16:15:53.097Z,28.39
2018-06-08T16:17:20.891Z,28.39
2018-06-08T16:18:48.651Z,28.37
2018-06-08T16:20:17.156Z,28.35
2018-06-08T16:21:44.683Z,28.34
2018-06-08T16:23:11.259Z,28.33
2018-06-08T16:24:40.030Z,28.32
2018-06-08T16:26:06.622Z,28.30
2018-06-08T16:27:34.504Z,28.27
2018-06-08T16:29:02.117Z,28.23
2018-06-08T16:30:29.534Z,28.20
2018-06-08T16:31:56.902Z,28.14
2018-06-08T16:33:25.645Z,28.10
2018-06-08T16:34:53.298Z,28.06
2018-06-08T16:36:21.089Z,28.02
2018-06-08T16:37:48.689Z,27.95
2018-06-08T16:39:16.349Z,27.88
2018-06-08T16:40:42.924Z,27.84
2018-06-08T16:42:11.487Z,27.81
2018-06-08T16:43:39.214Z,27.78
2018-06-08T16:45:05.659Z,27.75
2018-06-08T16:46:33.292Z,27.73
2018-06-08T16:48:01.067Z,27.69
2018-06-08T16:49:28.824Z,27.64
2018-06-08T16:50:56.509Z,27.61
2018-06-08T16:52:24.082Z,27.55
2018-06-08T16:53:51.779Z,27.51
2018-06-08T16:55:20.339Z,27.46
2018-06-08T16:56:46.879Z,27.38
2018-06-08T16:58:14.544Z,27.35
2018-06-08T16:59:42.202Z,27.33
2018-06-08T17:01:09.938Z,27.32
2018-06-08T17:02:37.555Z,27.31
2018-06-08T17:04:06.269Z,27.29
2018-06-08T17:05:33.000Z,27.26
2018-06-08T17:07:00.490Z,27.23
2018-06-08T17:08:29.254Z,27.21
2018-06-08T17:09:55.989Z,27.18
2018-06-08T17:11:23.668Z,27.15
2018-06-08T17:12:51.352Z,27.12
2018-06-08T17:14:19.100Z,27.09
2018-06-08T17:15:46.671Z,27.06
2018-06-08T17:17:15.329Z,27.03
2018-06-08T17:18:41.885Z,27.00
2018-06-08T17:20:09.474Z,26.96
2018-06-08T17:21:38.218Z,26.91
2018-06-08T17:23:05.963Z,26.87
2018-06-08T17:24:33.672Z,26.83
2018-06-08T17:26:00.195Z,26.79
2018-06-08T17:27:27.873Z,26.76
2018-06-08T17:28:56.552Z,26.73
2018-06-08T17:30:22.705Z,26.66
2018-06-08T17:31:50.541Z,26.64
2018-06-08T17:33:18.201Z,26.61
2018-06-08T17:34:45.852Z,26.58
2018-06-08T17:36:13.570Z,26.54
2018-06-08T17:37:42.239Z,26.49
2018-06-08T17:39:08.862Z,26.44
2018-06-08T17:40:37.487Z,26.39
2018-06-08T17:42:04.064Z,26.33
2018-06-08T17:43:31.828Z,26.27
2018-06-08T17:45:00.455Z,26.24
2018-06-08T17:46:27.177Z,26.21
2018-06-08T17:47:55.733Z,26.17
2018-06-08T17:49:23.312Z,26.12
2018-06-08T17:50:49.962Z,26.09
2018-06-08T17:52:17.613Z,26.06
2018-06-08T17:53:45.273Z,26.01
2018-06-08T17:55:12.845Z,25.95
2018-06-08T17:56:41.522Z,25.89
2018-06-08T17:58:07.992Z,25.83
2018-06-08T17:59:36.616Z,25.78
2018-06-08T18:01:04.391Z,25.73
2018-06-08T18:02:30.971Z,25.67
2018-06-08T18:03:59.611Z,25.65
2018-06-08T18:05:26.323Z,25.61
2018-06-08T18:06:53.970Z,25.56
2018-06-08T18:08:21.628Z,25.52
2018-06-08T18:09:50.244Z,25.50
2018-06-08T18:11:16.974Z,25.45
2018-06-08T18:12:44.661Z,25.42
2018-06-08T18:14:12.334Z,25.39
2018-06-08T18:15:40.146Z,25.34
2018-06-08T18:17:07.657Z,25.27
2018-06-08T18:18:36.337Z,25.22
2018-06-08T18:20:02.898Z,25.15
2018-06-08T18:21:30.541Z,25.10
2018-06-08T18:22:59.035Z,25.08
2018-06-08T18:24:25.788Z,25.05
2018-06-08T18:25:54.162Z,24.98
2018-06-08T18:27:20.621Z,24.93
2018-06-08T18:28:48.447Z,24.88
2018-06-08T18:30:16.028Z,24.84
2018-06-08T18:31:43.481Z,24.78
2018-06-08T18:33:12.121Z,24.72
2018-06-08T18:34:38.367Z,24.67
2018-06-08T18:36:07.179Z,24.62
2018-06-08T18:37:33.644Z,24.56
2018-06-08T18:39:01.185Z,24.48
2018-06-08T18:40:28.659Z,24.43
2018-06-08T18:41:56.360Z,24.37
2018-06-08T18:43:25.071Z,24.28
2018-06-08T18:44:51.463Z,24.23
2018-06-08T18:46:19.105Z,24.21
2018-06-08T18:47:47.700Z,24.17
2018-06-08T18:49:15.294Z,24.10